sensor_id;sensor_type;location;lat;lon;timestamp;temperature;humidity
21387;DHT22;10854;45.922;6.716;2022-12-11T00:01:18;0.60;99.90
21387;DHT22;10854;45.922;6.716;2022-12-11T00:03:47;0.50;99.90
21387;DHT22;10854;45.922;6.716;2022-12-11T00:06:19;0.50;99.90
21387;DHT22;10854;45.922;6.716;2022-12-11T00:08:52;0.50;99.90
21387;DHT22;10854;45.922;6.716;2022-12-11T00:11:22;0.50;99.90
21387;DHT22;10854;45.922;6.716;2022-12-11T00:13:50;0.50;99.90
21387;DHT22;10854;45.922;6.716;2022-12-11T00:16:21;0.50;99.90
21387;DHT22;10854;45.922;6.716;2022-12-11T00:18:53;0.50;99.90
21387;DHT22;10854;45.922;6.716;2022-12-11T00:21:22;0.50;99.90
21387;DHT22;10854;45.922;6.716;2022-12-11T00:23:50;0.50;99.90
21387;DHT22;10854;45.922;6.716;2022-12-11T00:26:19;0.50;99.90
21387;DHT22;10854;45.922;6.716;2022-12-11T00:28:52;0.50;99.90
21387;DHT22;10854;45.922;6.716;2022-12-11T00:31:22;0.50;99.90
21387;DHT22;10854;45.922;6.716;2022-12-11T00:33:50;0.50;99.90
21387;DHT22;10854;45.922;6.716;2022-12-11T00:36:23;0.50;99.90
21387;DHT22;10854;45.922;6.716;2022-12-11T00:38:52;0.50;99.90
21387;DHT22;10854;45.922;6.716;2022-12-11T00:41:21;0.50;99.90
21387;DHT22;10854;45.922;6.716;2022-12-11T00:43:50;0.50;99.90
21387;DHT22;10854;45.922;6.716;2022-12-11T00:46:18;0.50;99.90
21387;DHT22;10854;45.922;6.716;2022-12-11T00:48:47;0.50;99.90
21387;DHT22;10854;45.922;6.716;2022-12-11T00:51:17;0.40;99.90
21387;DHT22;10854;45.922;6.716;2022-12-11T00:53:45;0.40;99.90
21387;DHT22;10854;45.922;6.716;2022-12-11T00:56:17;0.40;99.90
21387;DHT22;10854;45.922;6.716;2022-12-11T00:58:46;0.40;99.90
21387;DHT22;10854;45.922;6.716;2022-12-11T01:01:21;0.40;99.90
21387;DHT22;10854;45.922;6.716;2022-12-11T01:03:50;0.40;99.90
21387;DHT22;10854;45.922;6.716;2022-12-11T01:06:21;0.40;99.90
21387;DHT22;10854;45.922;6.716;2022-12-11T01:08:50;0.40;99.90
21387;DHT22;10854;45.922;6.716;2022-12-11T01:11:41;0.40;99.90
21387;DHT22;10854;45.922;6.716;2022-12-11T01:14:10;0.40;99.90
21387;DHT22;10854;45.922;6.716;2022-12-11T01:16:39;0.40;99.90
21387;DHT22;10854;45.922;6.716;2022-12-11T01:19:08;0.40;99.90
21387;DHT22;10854;45.922;6.716;2022-12-11T01:21:36;0.40;99.90
21387;DHT22;10854;45.922;6.716;2022-12-11T01:24:05;0.30;99.90
21387;DHT22;10854;45.922;6.716;2022-12-11T01:26:33;0.40;99.90
21387;DHT22;10854;45.922;6.716;2022-12-11T01:29:02;0.40;99.90
21387;DHT22;10854;45.922;6.716;2022-12-11T01:31:30;0.30;99.90
21387;DHT22;10854;45.922;6.716;2022-12-11T01:33:59;0.40;99.90
21387;DHT22;10854;45.922;6.716;2022-12-11T01:36:28;0.40;99.90
21387;DHT22;10854;45.922;6.716;2022-12-11T01:38:56;0.30;99.90
21387;DHT22;10854;45.922;6.716;2022-12-11T01:41:25;0.30;99.90
21387;DHT22;10854;45.922;6.716;2022-12-11T01:45:10;0.30;99.90
21387;DHT22;10854;45.922;6.716;2022-12-11T01:46:55;0.30;99.90
21387;DHT22;10854;45.922;6.716;2022-12-11T01:49:26;0.30;99.90
21387;DHT22;10854;45.922;6.716;2022-12-11T01:51:57;0.30;99.90
21387;DHT22;10854;45.922;6.716;2022-12-11T01:54:27;0.30;99.90
21387;DHT22;10854;45.922;6.716;2022-12-11T01:57:03;0.30;99.90
21387;DHT22;10854;45.922;6.716;2022-12-11T01:59:36;0.20;99.90
21387;DHT22;10854;45.922;6.716;2022-12-11T02:02:21;0.30;99.90
21387;DHT22;10854;45.922;6.716;2022-12-11T02:04:50;0.30;99.90
21387;DHT22;10854;45.922;6.716;2022-12-11T02:07:19;0.20;99.90
21387;DHT22;10854;45.922;6.716;2022-12-11T02:09:49;0.20;99.90
21387;DHT22;10854;45.922;6.716;2022-12-11T02:12:41;0.20;99.90
21387;DHT22;10854;45.922;6.716;2022-12-11T02:15:30;0.20;99.90
21387;DHT22;10854;45.922;6.716;2022-12-11T02:21:24;0.10;99.90
21387;DHT22;10854;45.922;6.716;2022-12-11T02:26:50;0.10;99.90
21387;DHT22;10854;45.922;6.716;2022-12-11T02:32:09;0.00;99.90
21387;DHT22;10854;45.922;6.716;2022-12-11T02:34:45;0.00;99.90
21387;DHT22;10854;45.922;6.716;2022-12-11T02:37:20;0.00;99.90
21387;DHT22;10854;45.922;6.716;2022-12-11T02:39:53;-0.10;99.90
21387;DHT22;10854;45.922;6.716;2022-12-11T02:42:26;-0.10;99.90
21387;DHT22;10854;45.922;6.716;2022-12-11T02:44:58;-0.20;99.90
21387;DHT22;10854;45.922;6.716;2022-12-11T02:47:29;-0.20;99.90
21387;DHT22;10854;45.922;6.716;2022-12-11T02:50:01;-0.20;99.90
21387;DHT22;10854;45.922;6.716;2022-12-11T02:52:31;-0.20;99.90
21387;DHT22;10854;45.922;6.716;2022-12-11T02:55:00;-0.10;99.90
21387;DHT22;10854;45.922;6.716;2022-12-11T02:57:44;-0.20;99.90
21387;DHT22;10854;45.922;6.716;2022-12-11T03:00:15;-0.20;99.90
21387;DHT22;10854;45.922;6.716;2022-12-11T03:02:45;-0.10;99.90
21387;DHT22;10854;45.922;6.716;2022-12-11T03:05:14;-0.10;99.90
21387;DHT22;10854;45.922;6.716;2022-12-11T03:07:43;-0.10;99.90
21387;DHT22;10854;45.922;6.716;2022-12-11T03:10:14;-0.10;99.90
21387;DHT22;10854;45.922;6.716;2022-12-11T03:12:46;-0.10;99.90
21387;DHT22;10854;45.922;6.716;2022-12-11T03:15:20;-0.10;99.90
21387;DHT22;10854;45.922;6.716;2022-12-11T03:18:08;-0.10;99.90
21387;DHT22;10854;45.922;6.716;2022-12-11T03:20:44;-0.10;99.90
21387;DHT22;10854;45.922;6.716;2022-12-11T03:26:07;0.00;99.90
21387;DHT22;10854;45.922;6.716;2022-12-11T03:28:49;0.00;99.90
21387;DHT22;10854;45.922;6.716;2022-12-11T03:31:29;0.00;99.90
21387;DHT22;10854;45.922;6.716;2022-12-11T03:34:05;0.00;99.90
21387;DHT22;10854;45.922;6.716;2022-12-11T03:36:37;0.00;99.90
21387;DHT22;10854;45.922;6.716;2022-12-11T03:39:10;0.00;99.90
21387;DHT22;10854;45.922;6.716;2022-12-11T03:41:42;0.00;99.90
21387;DHT22;10854;45.922;6.716;2022-12-11T03:44:12;0.00;99.90
21387;DHT22;10854;45.922;6.716;2022-12-11T03:46:42;0.00;99.90
21387;DHT22;10854;45.922;6.716;2022-12-11T03:49:19;0.00;99.90
21387;DHT22;10854;45.922;6.716;2022-12-11T03:51:51;0.00;99.90
21387;DHT22;10854;45.922;6.716;2022-12-11T03:54:22;0.00;99.90
21387;DHT22;10854;45.922;6.716;2022-12-11T03:56:54;0.00;99.90
21387;DHT22;10854;45.922;6.716;2022-12-11T03:59:23;0.00;99.90
21387;DHT22;10854;45.922;6.716;2022-12-11T04:01:52;0.00;99.90
21387;DHT22;10854;45.922;6.716;2022-12-11T04:04:20;0.00;99.90
21387;DHT22;10854;45.922;6.716;2022-12-11T04:06:49;0.00;99.90
21387;DHT22;10854;45.922;6.716;2022-12-11T04:09:17;0.00;99.90
21387;DHT22;10854;45.922;6.716;2022-12-11T04:11:45;0.00;99.90
21387;DHT22;10854;45.922;6.716;2022-12-11T04:14:14;0.00;99.90
21387;DHT22;10854;45.922;6.716;2022-12-11T04:17:01;0.00;99.90
21387;DHT22;10854;45.922;6.716;2022-12-11T04:19:30;0.00;99.90
21387;DHT22;10854;45.922;6.716;2022-12-11T04:22:17;0.00;99.90
21387;DHT22;10854;45.922;6.716;2022-12-11T04:25:06;0.00;99.90
21387;DHT22;10854;45.922;6.716;2022-12-11T04:27:34;0.00;99.90
21387;DHT22;10854;45.922;6.716;2022-12-11T04:30:23;0.00;99.90
21387;DHT22;10854;45.922;6.716;2022-12-11T04:32:54;0.00;99.90
21387;DHT22;10854;45.922;6.716;2022-12-11T04:35:23;-0.10;99.90
21387;DHT22;10854;45.922;6.716;2022-12-11T04:37:52;-0.10;99.90
21387;DHT22;10854;45.922;6.716;2022-12-11T04:40:22;-0.10;99.90
21387;DHT22;10854;45.922;6.716;2022-12-11T04:42:50;-0.10;99.90
21387;DHT22;10854;45.922;6.716;2022-12-11T04:45:19;-0.10;99.90
21387;DHT22;10854;45.922;6.716;2022-12-11T04:47:47;-0.20;99.90
21387;DHT22;10854;45.922;6.716;2022-12-11T04:50:17;-0.20;99.90
21387;DHT22;10854;45.922;6.716;2022-12-11T04:52:45;-0.20;99.90
21387;DHT22;10854;45.922;6.716;2022-12-11T04:55:14;-0.20;99.90
21387;DHT22;10854;45.922;6.716;2022-12-11T04:57:42;-0.20;99.90
21387;DHT22;10854;45.922;6.716;2022-12-11T05:00:12;-0.20;99.90
21387;DHT22;10854;45.922;6.716;2022-12-11T05:02:41;-0.30;99.90
21387;DHT22;10854;45.922;6.716;2022-12-11T05:05:10;-0.30;99.90
21387;DHT22;10854;45.922;6.716;2022-12-11T05:07:42;-0.30;99.90
21387;DHT22;10854;45.922;6.716;2022-12-11T05:10:12;-0.40;99.90
21387;DHT22;10854;45.922;6.716;2022-12-11T05:12:40;-0.40;99.90
21387;DHT22;10854;45.922;6.716;2022-12-11T05:15:09;-0.50;99.90
21387;DHT22;10854;45.922;6.716;2022-12-11T05:17:38;-0.60;99.90
21387;DHT22;10854;45.922;6.716;2022-12-11T05:20:07;-0.70;99.90
21387;DHT22;10854;45.922;6.716;2022-12-11T05:22:37;-0.70;99.90
21387;DHT22;10854;45.922;6.716;2022-12-11T05:25:06;-0.80;99.90
21387;DHT22;10854;45.922;6.716;2022-12-11T05:27:35;-0.80;99.90
21387;DHT22;10854;45.922;6.716;2022-12-11T05:30:04;-0.80;99.90
21387;DHT22;10854;45.922;6.716;2022-12-11T05:32:33;-0.80;99.90
21387;DHT22;10854;45.922;6.716;2022-12-11T05:35:02;-0.80;99.90
21387;DHT22;10854;45.922;6.716;2022-12-11T05:37:32;-0.80;99.90
21387;DHT22;10854;45.922;6.716;2022-12-11T05:40:02;-0.80;99.90
21387;DHT22;10854;45.922;6.716;2022-12-11T05:42:34;-0.80;99.90
21387;DHT22;10854;45.922;6.716;2022-12-11T05:45:03;-0.80;99.90
21387;DHT22;10854;45.922;6.716;2022-12-11T05:47:32;-0.80;99.90
21387;DHT22;10854;45.922;6.716;2022-12-11T05:50:00;-0.80;99.90
21387;DHT22;10854;45.922;6.716;2022-12-11T05:52:30;-0.80;99.90
21387;DHT22;10854;45.922;6.716;2022-12-11T05:54:59;-0.80;99.90
21387;DHT22;10854;45.922;6.716;2022-12-11T05:57:27;-0.80;99.90
21387;DHT22;10854;45.922;6.716;2022-12-11T05:59:56;-0.80;99.90
21387;DHT22;10854;45.922;6.716;2022-12-11T06:02:25;-0.70;99.90
21387;DHT22;10854;45.922;6.716;2022-12-11T06:04:53;-0.70;99.90
21387;DHT22;10854;45.922;6.716;2022-12-11T06:07:22;-0.70;99.90
21387;DHT22;10854;45.922;6.716;2022-12-11T06:09:50;-0.70;99.90
21387;DHT22;10854;45.922;6.716;2022-12-11T06:12:18;-0.70;99.90
21387;DHT22;10854;45.922;6.716;2022-12-11T06:14:47;-0.70;99.90
21387;DHT22;10854;45.922;6.716;2022-12-11T06:17:15;-0.70;99.90
21387;DHT22;10854;45.922;6.716;2022-12-11T06:19:44;-0.70;99.90
21387;DHT22;10854;45.922;6.716;2022-12-11T06:22:12;-0.60;99.90
21387;DHT22;10854;45.922;6.716;2022-12-11T06:24:40;-0.60;99.90
21387;DHT22;10854;45.922;6.716;2022-12-11T06:27:09;-0.60;99.90
21387;DHT22;10854;45.922;6.716;2022-12-11T06:29:37;-0.60;99.90
21387;DHT22;10854;45.922;6.716;2022-12-11T06:32:05;-0.60;99.90
21387;DHT22;10854;45.922;6.716;2022-12-11T06:34:34;-0.60;99.90
21387;DHT22;10854;45.922;6.716;2022-12-11T06:37:02;-0.60;99.90
21387;DHT22;10854;45.922;6.716;2022-12-11T06:39:31;-0.60;99.90
21387;DHT22;10854;45.922;6.716;2022-12-11T06:41:59;-0.70;99.90
21387;DHT22;10854;45.922;6.716;2022-12-11T06:44:28;-0.70;99.90
21387;DHT22;10854;45.922;6.716;2022-12-11T06:46:56;-0.70;99.90
21387;DHT22;10854;45.922;6.716;2022-12-11T06:49:25;-0.70;99.90
21387;DHT22;10854;45.922;6.716;2022-12-11T06:51:53;-0.70;99.90
21387;DHT22;10854;45.922;6.716;2022-12-11T06:54:25;-0.80;99.90
21387;DHT22;10854;45.922;6.716;2022-12-11T06:56:54;-0.80;99.90
21387;DHT22;10854;45.922;6.716;2022-12-11T06:59:22;-0.80;99.90
21387;DHT22;10854;45.922;6.716;2022-12-11T07:01:51;-0.80;99.90
21387;DHT22;10854;45.922;6.716;2022-12-11T07:04:20;-0.80;99.90
21387;DHT22;10854;45.922;6.716;2022-12-11T07:06:52;-0.80;99.90
21387;DHT22;10854;45.922;6.716;2022-12-11T07:09:20;-0.70;99.90
21387;DHT22;10854;45.922;6.716;2022-12-11T07:11:51;-0.70;99.90
21387;DHT22;10854;45.922;6.716;2022-12-11T07:14:20;-0.70;99.90
21387;DHT22;10854;45.922;6.716;2022-12-11T07:16:48;-0.70;99.90
21387;DHT22;10854;45.922;6.716;2022-12-11T07:19:16;-0.70;99.90
21387;DHT22;10854;45.922;6.716;2022-12-11T07:21:45;-0.70;99.90
21387;DHT22;10854;45.922;6.716;2022-12-11T07:24:13;-0.70;99.90
21387;DHT22;10854;45.922;6.716;2022-12-11T07:26:42;-0.60;99.90
21387;DHT22;10854;45.922;6.716;2022-12-11T07:29:10;-0.60;99.90
21387;DHT22;10854;45.922;6.716;2022-12-11T07:31:39;-0.60;99.90
21387;DHT22;10854;45.922;6.716;2022-12-11T07:34:10;-0.60;99.90
21387;DHT22;10854;45.922;6.716;2022-12-11T07:36:39;-0.60;99.90
21387;DHT22;10854;45.922;6.716;2022-12-11T07:39:07;-0.60;99.90
21387;DHT22;10854;45.922;6.716;2022-12-11T07:41:37;-0.60;99.90
21387;DHT22;10854;45.922;6.716;2022-12-11T07:44:06;-0.60;99.90
21387;DHT22;10854;45.922;6.716;2022-12-11T07:46:35;-0.60;99.90
21387;DHT22;10854;45.922;6.716;2022-12-11T07:49:05;-0.60;99.90
21387;DHT22;10854;45.922;6.716;2022-12-11T07:51:35;-0.60;99.90
21387;DHT22;10854;45.922;6.716;2022-12-11T07:54:07;-0.60;99.90
21387;DHT22;10854;45.922;6.716;2022-12-11T07:56:35;-0.60;99.90
21387;DHT22;10854;45.922;6.716;2022-12-11T07:59:04;-0.60;99.90
21387;DHT22;10854;45.922;6.716;2022-12-11T08:01:34;-0.60;99.90
21387;DHT22;10854;45.922;6.716;2022-12-11T08:04:05;-0.60;99.90
21387;DHT22;10854;45.922;6.716;2022-12-11T08:06:37;-0.60;99.90
21387;DHT22;10854;45.922;6.716;2022-12-11T08:09:10;-0.60;99.90
21387;DHT22;10854;45.922;6.716;2022-12-11T08:11:41;-0.60;99.90
21387;DHT22;10854;45.922;6.716;2022-12-11T08:14:09;-0.60;99.90
21387;DHT22;10854;45.922;6.716;2022-12-11T08:16:38;-0.60;99.90
21387;DHT22;10854;45.922;6.716;2022-12-11T08:19:13;-0.60;99.90
21387;DHT22;10854;45.922;6.716;2022-12-11T08:21:42;-0.70;99.90
21387;DHT22;10854;45.922;6.716;2022-12-11T08:24:10;-0.60;99.90
21387;DHT22;10854;45.922;6.716;2022-12-11T08:26:39;-0.60;99.90
21387;DHT22;10854;45.922;6.716;2022-12-11T08:29:08;-0.60;99.90
21387;DHT22;10854;45.922;6.716;2022-12-11T08:31:38;-0.60;99.90
21387;DHT22;10854;45.922;6.716;2022-12-11T08:34:07;-0.60;99.90
21387;DHT22;10854;45.922;6.716;2022-12-11T08:36:36;-0.60;99.90
21387;DHT22;10854;45.922;6.716;2022-12-11T08:39:05;-0.60;99.90
21387;DHT22;10854;45.922;6.716;2022-12-11T08:41:33;-0.50;99.90
21387;DHT22;10854;45.922;6.716;2022-12-11T08:44:02;-0.50;99.90
21387;DHT22;10854;45.922;6.716;2022-12-11T08:46:32;-0.40;99.90
21387;DHT22;10854;45.922;6.716;2022-12-11T08:49:00;-0.30;99.90
21387;DHT22;10854;45.922;6.716;2022-12-11T08:51:29;-0.30;99.90
21387;DHT22;10854;45.922;6.716;2022-12-11T08:53:59;-0.20;99.90
21387;DHT22;10854;45.922;6.716;2022-12-11T08:56:28;-0.20;99.90
21387;DHT22;10854;45.922;6.716;2022-12-11T08:59:00;-0.20;99.90
21387;DHT22;10854;45.922;6.716;2022-12-11T09:01:29;-0.20;99.90
21387;DHT22;10854;45.922;6.716;2022-12-11T09:03:58;-0.20;99.90
21387;DHT22;10854;45.922;6.716;2022-12-11T09:06:28;-0.20;99.90
21387;DHT22;10854;45.922;6.716;2022-12-11T09:08:59;-0.30;99.90
21387;DHT22;10854;45.922;6.716;2022-12-11T09:11:30;-0.30;99.90
21387;DHT22;10854;45.922;6.716;2022-12-11T09:13:59;-0.30;99.90
21387;DHT22;10854;45.922;6.716;2022-12-11T09:16:30;-0.30;99.90
21387;DHT22;10854;45.922;6.716;2022-12-11T09:18:59;-0.30;99.90
21387;DHT22;10854;45.922;6.716;2022-12-11T09:21:29;-0.30;99.90
21387;DHT22;10854;45.922;6.716;2022-12-11T09:23:59;-0.30;99.90
21387;DHT22;10854;45.922;6.716;2022-12-11T09:26:29;-0.20;99.90
21387;DHT22;10854;45.922;6.716;2022-12-11T09:28:57;-0.20;99.90
21387;DHT22;10854;45.922;6.716;2022-12-11T09:31:28;-0.10;99.90
21387;DHT22;10854;45.922;6.716;2022-12-11T09:33:59;0.00;99.90
21387;DHT22;10854;45.922;6.716;2022-12-11T09:36:28;0.10;99.90
21387;DHT22;10854;45.922;6.716;2022-12-11T09:39:02;0.10;99.90
21387;DHT22;10854;45.922;6.716;2022-12-11T09:44:20;0.30;99.90
21387;DHT22;10854;45.922;6.716;2022-12-11T09:46:53;0.40;99.90
21387;DHT22;10854;45.922;6.716;2022-12-11T09:49:34;0.50;99.90
21387;DHT22;10854;45.922;6.716;2022-12-11T09:52:37;0.60;99.90
21387;DHT22;10854;45.922;6.716;2022-12-11T09:55:19;0.90;99.90
21387;DHT22;10854;45.922;6.716;2022-12-11T09:57:59;1.50;99.90
21387;DHT22;10854;45.922;6.716;2022-12-11T10:00:39;2.50;99.90
21387;DHT22;10854;45.922;6.716;2022-12-11T10:17:33;7.60;81.10
21387;DHT22;10854;45.922;6.716;2022-12-11T10:20:21;8.10;80.90
21387;DHT22;10854;45.922;6.716;2022-12-11T10:22:51;8.70;73.50
21387;DHT22;10854;45.922;6.716;2022-12-11T10:25:42;9.20;73.80
21387;DHT22;10854;45.922;6.716;2022-12-11T10:28:17;9.60;68.00
21387;DHT22;10854;45.922;6.716;2022-12-11T10:30:56;9.60;61.60
21387;DHT22;10854;45.922;6.716;2022-12-11T10:33:35;9.20;59.60
21387;DHT22;10854;45.922;6.716;2022-12-11T10:36:06;9.20;62.80
21387;DHT22;10854;45.922;6.716;2022-12-11T10:38:42;9.40;63.40
21387;DHT22;10854;45.922;6.716;2022-12-11T10:41:16;9.70;59.20
21387;DHT22;10854;45.922;6.716;2022-12-11T10:43:47;9.50;57.30
21387;DHT22;10854;45.922;6.716;2022-12-11T10:46:21;9.50;57.20
21387;DHT22;10854;45.922;6.716;2022-12-11T10:48:52;9.50;58.30
21387;DHT22;10854;45.922;6.716;2022-12-11T10:51:39;9.40;59.00
21387;DHT22;10854;45.922;6.716;2022-12-11T10:54:25;9.90;58.60
21387;DHT22;10854;45.922;6.716;2022-12-11T10:56:57;10.00;56.30
21387;DHT22;10854;45.922;6.716;2022-12-11T10:59:53;10.40;59.30
21387;DHT22;10854;45.922;6.716;2022-12-11T11:02:34;10.50;55.70
21387;DHT22;10854;45.922;6.716;2022-12-11T11:05:15;10.60;56.50
21387;DHT22;10854;45.922;6.716;2022-12-11T11:07:44;10.50;55.70
21387;DHT22;10854;45.922;6.716;2022-12-11T11:10:14;10.20;55.40
21387;DHT22;10854;45.922;6.716;2022-12-11T11:12:46;10.40;57.30
21387;DHT22;10854;45.922;6.716;2022-12-11T11:15:19;10.50;54.60
21387;DHT22;10854;45.922;6.716;2022-12-11T11:17:52;10.20;53.70
21387;DHT22;10854;45.922;6.716;2022-12-11T11:20:26;10.10;55.30
21387;DHT22;10854;45.922;6.716;2022-12-11T11:23:10;10.50;56.70
21387;DHT22;10854;45.922;6.716;2022-12-11T11:25:48;10.90;54.40
21387;DHT22;10854;45.922;6.716;2022-12-11T11:28:29;11.00;52.50
21387;DHT22;10854;45.922;6.716;2022-12-11T11:31:04;11.00;53.80
21387;DHT22;10854;45.922;6.716;2022-12-11T11:33:35;11.40;54.20
21387;DHT22;10854;45.922;6.716;2022-12-11T11:36:06;11.50;52.50
21387;DHT22;10854;45.922;6.716;2022-12-11T11:38:43;11.40;51.60
21387;DHT22;10854;45.922;6.716;2022-12-11T11:41:20;11.30;51.70
21387;DHT22;10854;45.922;6.716;2022-12-11T11:57:26;11.30;51.20
21387;DHT22;10854;45.922;6.716;2022-12-11T12:00:03;11.20;51.80
21387;DHT22;10854;45.922;6.716;2022-12-11T12:02:36;11.30;48.80
21387;DHT22;10854;45.922;6.716;2022-12-11T12:05:07;11.20;50.10
21387;DHT22;10854;45.922;6.716;2022-12-11T12:07:47;11.20;49.20
21387;DHT22;10854;45.922;6.716;2022-12-11T12:10:45;11.40;49.70
21387;DHT22;10854;45.922;6.716;2022-12-11T12:19:36;11.30;44.80
21387;DHT22;10854;45.922;6.716;2022-12-11T12:33:51;12.30;46.00
21387;DHT22;10854;45.922;6.716;2022-12-11T12:36:31;12.40;42.60
21387;DHT22;10854;45.922;6.716;2022-12-11T12:39:15;12.00;41.90
21387;DHT22;10854;45.922;6.716;2022-12-11T12:42:24;12.00;44.80
21387;DHT22;10854;45.922;6.716;2022-12-11T12:45:06;12.30;43.60
21387;DHT22;10854;45.922;6.716;2022-12-11T12:47:38;12.10;43.00
21387;DHT22;10854;45.922;6.716;2022-12-11T12:50:16;12.10;44.60
21387;DHT22;10854;45.922;6.716;2022-12-11T12:52:46;12.00;42.70
21387;DHT22;10854;45.922;6.716;2022-12-11T12:57:55;11.30;43.70
21387;DHT22;10854;45.922;6.716;2022-12-11T13:03:00;10.50;45.60
21387;DHT22;10854;45.922;6.716;2022-12-11T13:05:32;10.50;46.30
21387;DHT22;10854;45.922;6.716;2022-12-11T13:08:03;10.70;46.30
21387;DHT22;10854;45.922;6.716;2022-12-11T13:10:37;10.50;44.20
21387;DHT22;10854;45.922;6.716;2022-12-11T13:13:29;10.30;45.50
21387;DHT22;10854;45.922;6.716;2022-12-11T13:18:46;9.80;48.60
21387;DHT22;10854;45.922;6.716;2022-12-11T13:21:34;9.60;49.20
21387;DHT22;10854;45.922;6.716;2022-12-11T13:24:27;9.40;48.50
21387;DHT22;10854;45.922;6.716;2022-12-11T13:27:08;9.60;48.90
21387;DHT22;10854;45.922;6.716;2022-12-11T13:29:41;9.60;48.40
21387;DHT22;10854;45.922;6.716;2022-12-11T13:34:49;10.00;48.40
21387;DHT22;10854;45.922;6.716;2022-12-11T13:39:56;10.50;48.50
21387;DHT22;10854;45.922;6.716;2022-12-11T13:42:52;10.40;49.30
21387;DHT22;10854;45.922;6.716;2022-12-11T13:45:33;10.30;49.50
21387;DHT22;10854;45.922;6.716;2022-12-11T13:48:33;10.30;49.40
21387;DHT22;10854;45.922;6.716;2022-12-11T13:51:00;10.20;48.90
21387;DHT22;10854;45.922;6.716;2022-12-11T13:53:29;9.90;49.70
21387;DHT22;10854;45.922;6.716;2022-12-11T13:56:05;9.80;49.70
21387;DHT22;10854;45.922;6.716;2022-12-11T13:58:37;9.70;50.00
21387;DHT22;10854;45.922;6.716;2022-12-11T14:01:13;9.40;50.30
21387;DHT22;10854;45.922;6.716;2022-12-11T14:03:53;9.30;50.70
21387;DHT22;10854;45.922;6.716;2022-12-11T14:06:23;9.00;50.60
21387;DHT22;10854;45.922;6.716;2022-12-11T14:08:57;8.80;52.30
21387;DHT22;10854;45.922;6.716;2022-12-11T14:11:34;8.60;51.80
21387;DHT22;10854;45.922;6.716;2022-12-11T14:14:07;8.40;52.00
21387;DHT22;10854;45.922;6.716;2022-12-11T14:16:42;8.30;52.50
21387;DHT22;10854;45.922;6.716;2022-12-11T14:19:15;8.30;52.80
21387;DHT22;10854;45.922;6.716;2022-12-11T14:22:05;8.30;52.80
21387;DHT22;10854;45.922;6.716;2022-12-11T14:24:34;8.20;52.40
21387;DHT22;10854;45.922;6.716;2022-12-11T14:27:11;8.20;52.70
21387;DHT22;10854;45.922;6.716;2022-12-11T14:29:43;8.00;52.30
21387;DHT22;10854;45.922;6.716;2022-12-11T14:32:31;7.80;52.80
21387;DHT22;10854;45.922;6.716;2022-12-11T14:35:04;7.60;53.20
21387;DHT22;10854;45.922;6.716;2022-12-11T14:37:35;7.40;53.30
21387;DHT22;10854;45.922;6.716;2022-12-11T14:40:13;7.30;53.70
21387;DHT22;10854;45.922;6.716;2022-12-11T14:42:51;7.10;53.70
21387;DHT22;10854;45.922;6.716;2022-12-11T14:45:31;6.90;54.50
21387;DHT22;10854;45.922;6.716;2022-12-11T14:48:04;6.80;54.40
21387;DHT22;10854;45.922;6.716;2022-12-11T14:50:44;6.60;54.70
21387;DHT22;10854;45.922;6.716;2022-12-11T14:53:37;6.50;54.70
21387;DHT22;10854;45.922;6.716;2022-12-11T14:56:12;6.30;55.30
21387;DHT22;10854;45.922;6.716;2022-12-11T14:59:00;6.00;55.70
21387;DHT22;10854;45.922;6.716;2022-12-11T15:01:32;5.70;56.20
21387;DHT22;10854;45.922;6.716;2022-12-11T15:06:46;5.10;57.50
21387;DHT22;10854;45.922;6.716;2022-12-11T15:09:28;4.80;58.00
21387;DHT22;10854;45.922;6.716;2022-12-11T15:12:16;4.50;58.70
21387;DHT22;10854;45.922;6.716;2022-12-11T15:14:54;4.10;59.70
21387;DHT22;10854;45.922;6.716;2022-12-11T15:17:25;3.40;60.60
21387;DHT22;10854;45.922;6.716;2022-12-11T15:20:04;2.80;62.00
21387;DHT22;10854;45.922;6.716;2022-12-11T15:22:34;2.20;64.00
21387;DHT22;10854;45.922;6.716;2022-12-11T15:25:03;1.70;65.20
21387;DHT22;10854;45.922;6.716;2022-12-11T15:30:27;1.00;67.60
21387;DHT22;10854;45.922;6.716;2022-12-11T15:35:38;0.40;69.20
21387;DHT22;10854;45.922;6.716;2022-12-11T15:38:26;0.20;69.90
21387;DHT22;10854;45.922;6.716;2022-12-11T15:40:56;-0.10;70.60
21387;DHT22;10854;45.922;6.716;2022-12-11T15:43:25;-0.20;71.50
21387;DHT22;10854;45.922;6.716;2022-12-11T15:45:54;-0.40;72.20
21387;DHT22;10854;45.922;6.716;2022-12-11T15:48:22;-0.60;72.70
21387;DHT22;10854;45.922;6.716;2022-12-11T15:50:51;-0.70;73.30
21387;DHT22;10854;45.922;6.716;2022-12-11T15:53:19;-0.80;74.10
21387;DHT22;10854;45.922;6.716;2022-12-11T15:55:48;-0.90;74.70
21387;DHT22;10854;45.922;6.716;2022-12-11T15:58:19;-1.00;75.40
21387;DHT22;10854;45.922;6.716;2022-12-11T16:00:48;-1.10;76.30
21387;DHT22;10854;45.922;6.716;2022-12-11T16:03:18;-1.20;76.30
21387;DHT22;10854;45.922;6.716;2022-12-11T16:05:49;-1.30;76.80
21387;DHT22;10854;45.922;6.716;2022-12-11T16:08:21;-1.30;77.60
21387;DHT22;10854;45.922;6.716;2022-12-11T16:10:52;-1.40;77.50
21387;DHT22;10854;45.922;6.716;2022-12-11T16:13:21;-1.40;77.20
21387;DHT22;10854;45.922;6.716;2022-12-11T16:15:50;-1.50;77.40
21387;DHT22;10854;45.922;6.716;2022-12-11T16:18:22;-1.50;77.60
21387;DHT22;10854;45.922;6.716;2022-12-11T16:20:51;-1.50;77.70
21387;DHT22;10854;45.922;6.716;2022-12-11T16:23:20;-1.60;77.60
21387;DHT22;10854;45.922;6.716;2022-12-11T16:25:49;-1.80;77.70
21387;DHT22;10854;45.922;6.716;2022-12-11T16:28:18;-1.90;77.90
21387;DHT22;10854;45.922;6.716;2022-12-11T16:30:48;-2.00;78.30
21387;DHT22;10854;45.922;6.716;2022-12-11T16:33:16;-2.10;78.80
21387;DHT22;10854;45.922;6.716;2022-12-11T16:35:45;-2.20;79.10
21387;DHT22;10854;45.922;6.716;2022-12-11T16:38:14;-2.30;79.50
21387;DHT22;10854;45.922;6.716;2022-12-11T16:40:43;-2.50;79.80
21387;DHT22;10854;45.922;6.716;2022-12-11T16:43:12;-2.50;80.30
21387;DHT22;10854;45.922;6.716;2022-12-11T16:45:42;-2.60;80.60
21387;DHT22;10854;45.922;6.716;2022-12-11T16:48:10;-2.70;80.80
21387;DHT22;10854;45.922;6.716;2022-12-11T16:50:39;-2.80;81.30
21387;DHT22;10854;45.922;6.716;2022-12-11T16:53:07;-2.90;81.50
21387;DHT22;10854;45.922;6.716;2022-12-11T16:55:38;-2.90;82.50
21387;DHT22;10854;45.922;6.716;2022-12-11T16:58:07;-2.90;82.70
21387;DHT22;10854;45.922;6.716;2022-12-11T17:00:35;-3.00;83.20
21387;DHT22;10854;45.922;6.716;2022-12-11T17:03:04;-3.00;83.70
21387;DHT22;10854;45.922;6.716;2022-12-11T17:05:32;-3.00;84.60
21387;DHT22;10854;45.922;6.716;2022-12-11T17:08:01;-3.00;84.90
21387;DHT22;10854;45.922;6.716;2022-12-11T17:10:30;-3.00;86.40
21387;DHT22;10854;45.922;6.716;2022-12-11T17:12:58;-3.10;86.30
21387;DHT22;10854;45.922;6.716;2022-12-11T17:15:27;-3.10;87.40
21387;DHT22;10854;45.922;6.716;2022-12-11T17:17:56;-3.10;88.90
21387;DHT22;10854;45.922;6.716;2022-12-11T17:20:24;-3.10;90.00
21387;DHT22;10854;45.922;6.716;2022-12-11T17:22:52;-3.10;90.60
21387;DHT22;10854;45.922;6.716;2022-12-11T17:25:21;-3.10;91.40
21387;DHT22;10854;45.922;6.716;2022-12-11T17:27:49;-3.10;92.00
21387;DHT22;10854;45.922;6.716;2022-12-11T17:30:18;-3.20;92.80
21387;DHT22;10854;45.922;6.716;2022-12-11T17:32:47;-3.10;94.30